Time;durP1;ratioP1;P1;durP2;ratioP2;P2;SDS_P1;SDS_P2;PMS_P1;PMS_P2;Temp;Humidity;BMP_temperature;BMP_pressure;BME280_temperature;BME280_humidity;BME280_pressure;Samples;Min_cycle;Max_cycle;Signal;HPM_P1;HPM_P2
2021/07/06 00:01:42;;;;;;;6.22;3.65;;;;;;;16.52;65.14;99272.06;5155449;27;20039;-67
2021/07/06 00:04:08;;;;;;;7.30;4.28;;;;;;;16.49;65.46;99278.78;5155480;27;20049;-67
2021/07/06 00:06:34;;;;;;;7.68;4.13;;;;;;;16.51;65.34;99273.94;5155364;27;20517;-67
2021/07/06 00:09:00;;;;;;;5.88;4.10;;;;;;;16.56;65.17;99273.13;5136535;27;20351;-66
2021/07/06 00:11:25;;;;;;;8.20;4.22;;;;;;;16.59;65.50;99280.59;5136782;27;20043;-66
2021/07/06 00:13:51;;;;;;;8.25;4.00;;;;;;;16.59;64.73;99283.28;5155094;27;20047;-66
2021/07/06 00:16:17;;;;;;;5.88;3.78;;;;;;;16.63;64.78;99281.63;5136817;27;20046;-66
2021/07/06 00:18:43;;;;;;;4.38;3.95;;;;;;;16.69;64.00;99274.34;5155444;27;20043;-66
2021/07/06 00:21:09;;;;;;;5.75;3.92;;;;;;;16.72;64.31;99279.94;5136694;27;20376;-66
2021/07/06 00:23:35;;;;;;;6.63;4.30;;;;;;;16.72;63.91;99281.81;5155159;27;20046;-66
2021/07/06 00:26:01;;;;;;;5.18;3.65;;;;;;;16.69;64.41;99283.19;5154662;27;20031;-66
2021/07/06 00:28:26;;;;;;;5.00;3.90;;;;;;;16.69;64.59;99285.06;5155227;27;20039;-66
2021/07/06 00:30:52;;;;;;;5.35;4.47;;;;;;;16.67;64.21;99273.81;5136384;27;20427;-66
2021/07/06 00:33:30;;;;;;;4.63;3.33;;;;;;;16.70;64.33;99278.63;5136618;27;20452;-66
2021/07/06 00:36:06;;;;;;;6.18;4.15;;;;;;;16.65;64.93;99281.31;5136352;27;20548;-66
2021/07/06 00:38:32;;;;;;;7.38;4.25;;;;;;;16.56;65.19;99265.91;5154810;27;20043;-65
2021/07/06 00:41:00;;;;;;;5.28;3.67;;;;;;;16.57;65.19;99275.50;5154981;27;20415;-66
2021/07/06 00:43:27;;;;;;;5.63;4.10;;;;;;;16.53;65.60;99281.69;5154630;27;20050;-66
2021/07/06 00:46:00;;;;;;;5.35;4.03;;;;;;;16.44;65.79;99281.50;5135660;27;20070;-65
2021/07/06 00:48:26;;;;;;;5.72;3.80;;;;;;;16.40;65.71;99279.66;5154530;27;20492;-66
2021/07/06 00:50:52;;;;;;;11.52;4.50;;;;;;;16.34;66.06;99287.72;5154037;27;20047;-67
2021/07/06 00:53:18;;;;;;;6.97;3.88;;;;;;;16.26;66.00;99280.25;5154755;27;20444;-67
2021/07/06 00:55:46;;;;;;;7.95;3.95;;;;;;;16.24;65.89;99281.66;5154411;27;20134;-66
2021/07/06 00:58:14;;;;;;;8.95;4.00;;;;;;;16.26;65.88;99282.94;5135898;27;20050;-66
2021/07/06 01:00:39;;;;;;;4.72;3.50;;;;;;;16.32;66.27;99279.19;5154002;27;20084;-67
2021/07/06 01:03:06;;;;;;;6.40;3.85;;;;;;;16.37;66.29;99275.66;5154388;27;20684;-66
2021/07/06 01:05:32;;;;;;;7.75;4.22;;;;;;;16.40;66.36;99288.47;5154357;27;20095;-66
2021/07/06 01:07:58;;;;;;;7.10;4.30;;;;;;;16.49;65.52;99291.34;5154404;27;20560;-66
2021/07/06 01:10:24;;;;;;;5.47;3.67;;;;;;;16.65;65.34;99289.34;5135532;27;20054;-66
2021/07/06 01:12:52;;;;;;;5.45;4.03;;;;;;;16.76;65.05;99289.03;5154061;27;20125;-67
2021/07/06 01:15:23;;;;;;;7.18;3.47;;;;;;;16.89;64.58;99287.59;5154041;27;20125;-67
2021/07/06 01:18:08;;;;;;;8.88;4.03;;;;;;;16.92;64.54;99286.25;5154352;27;20043;-66
2021/07/06 01:20:36;;;;;;;8.20;3.70;;;;;;;16.85;65.08;99291.91;5135489;27;20038;-66
2021/07/06 01:23:04;;;;;;;6.68;4.18;;;;;;;16.79;65.20;99293.03;5154187;27;20050;-66
2021/07/06 01:25:30;;;;;;;5.78;4.00;;;;;;;16.78;65.24;99294.91;5135234;27;20031;-67
2021/07/06 01:27:56;;;;;;;7.32;4.38;;;;;;;16.79;65.54;99301.88;5135127;27;20050;-66
2021/07/06 01:30:22;;;;;;;6.22;4.05;;;;;;;16.78;65.75;99300.25;5117892;27;20030;-67
2021/07/06 01:32:48;;;;;;;6.25;3.78;;;;;;;16.81;65.06;99306.94;5153987;27;20046;-67
2021/07/06 01:35:17;;;;;;;5.57;4.47;;;;;;;16.92;64.68;99304.97;5117782;27;20408;-66
2021/07/06 01:37:48;;;;;;;4.80;3.47;;;;;;;16.99;64.37;99308.91;5153584;27;20042;-65
2021/07/06 01:40:15;;;;;;;7.22;4.00;;;;;;;17.10;64.93;99308.84;5153900;27;20073;-66
2021/07/06 01:42:42;;;;;;;5.22;4.00;;;;;;;17.44;63.75;99316.78;5153427;27;20081;-68
2021/07/06 01:45:10;;;;;;;6.20;4.18;;;;;;;17.79;62.91;99312.94;5134748;27;20055;-67
2021/07/06 01:47:40;;;;;;;6.05;3.88;;;;;;;18.08;61.23;99315.53;5134977;27;20051;-66
2021/07/06 01:50:08;;;;;;;3.65;3.35;;;;;;;18.19;61.12;99313.50;5153542;27;20039;-67
2021/07/06 01:52:34;;;;;;;6.55;3.80;;;;;;;18.19;61.17;99313.50;5153612;27;20129;-67
2021/07/06 01:55:00;;;;;;;12.15;4.32;;;;;;;18.19;61.15;99324.25;5153286;27;20179;-66
2021/07/06 01:57:26;;;;;;;6.38;4.22;;;;;;;18.08;62.29;99320.91;5153804;27;20053;-67
2021/07/06 01:59:52;;;;;;;8.00;4.38;;;;;;;18.17;61.57;99311.09;5152902;27;20619;-67
2021/07/06 02:02:18;;;;;;;6.75;3.85;;;;;;;18.75;60.38;99312.72;5152739;27;20061;-64
2021/07/06 02:04:48;;;;;;;5.55;3.72;;;;;;;19.24;59.72;99322.09;5100423;27;20083;-67
2021/07/06 02:07:14;;;;;;;7.30;4.00;;;;;;;19.72;57.87;99327.16;5134778;27;20050;-68
2021/07/06 02:09:40;;;;;;;7.10;3.63;;;;;;;20.08;56.86;99326.41;5134400;27;20038;-67
2021/07/06 02:12:06;;;;;;;6.97;3.92;;;;;;;20.52;55.80;99318.72;5153001;27;20039;-67
2021/07/06 02:14:32;;;;;;;4.05;3.65;;;;;;;21.13;54.14;99330.75;5152908;27;20507;-67
2021/07/06 02:16:57;;;;;;;6.68;4.05;;;;;;;21.56;52.72;99332.91;5134515;27;20050;-66
2021/07/06 02:19:23;;;;;;;9.63;4.30;;;;;;;22.07;51.19;99336.06;5152979;27;20122;-66
2021/07/06 02:21:49;;;;;;;6.13;3.70;;;;;;;21.54;52.26;99341.28;5134531;27;20046;-66
2021/07/06 02:24:15;;;;;;;8.27;4.05;;;;;;;21.14;52.85;99335.03;5152820;27;20035;-66
2021/07/06 02:26:40;;;;;;;4.50;3.85;;;;;;;21.54;52.74;99346.69;5152908;27;20042;-67
2021/07/06 02:29:06;;;;;;;7.10;3.55;;;;;;;22.03;51.51;99345.88;5152992;27;20049;-66
2021/07/06 02:31:32;;;;;;;5.88;3.72;;;;;;;22.23;50.69;99335.28;5153382;27;20114;-67
2021/07/06 02:33:58;;;;;;;6.03;3.88;;;;;;;22.56;50.16;99342.16;5153077;27;20035;-66
2021/07/06 02:36:23;;;;;;;7.10;3.90;;;;;;;22.75;48.90;99339.91;5152868;27;20058;-67
2021/07/06 02:38:49;;;;;;;11.95;4.00;;;;;;;22.80;48.95;99334.38;5152739;27;20125;-66
2021/07/06 02:41:15;;;;;;;5.78;3.90;;;;;;;22.76;49.02;99336.09;5153321;27;20044;-66
2021/07/06 02:43:41;;;;;;;6.00;4.10;;;;;;;23.09;48.07;99339.13;5152764;27;20055;-67
2021/07/06 02:46:07;;;;;;;4.65;3.70;;;;;;;23.46;47.62;99334.06;5152269;27;20075;-67
2021/07/06 02:48:34;;;;;;;5.53;3.90;;;;;;;23.61;46.81;99340.06;5134207;27;20139;-67
2021/07/06 02:50:59;;;;;;;6.22;4.55;;;;;;;23.30;48.09;99335.72;5153020;27;20511;-67
2021/07/06 02:53:25;;;;;;;8.45;4.18;;;;;;;23.67;47.05;99347.66;5152918;27;20047;-67
2021/07/06 02:55:52;;;;;;;7.93;4.13;;;;;;;23.83;46.84;99336.34;5152841;27;20117;-67
2021/07/06 02:58:18;;;;;;;4.47;3.72;;;;;;;23.87;46.23;99338.03;5152676;27;20145;-67
2021/07/06 03:00:44;;;;;;;9.20;3.80;;;;;;;23.90;46.80;99340.09;5133875;27;20046;-66
2021/07/06 03:03:10;;;;;;;7.85;4.65;;;;;;;24.23;46.15;99348.31;5134573;27;20062;-66
2021/07/06 03:05:37;;;;;;;7.35;4.32;;;;;;;24.49;45.37;99341.97;5152643;27;20043;-66
2021/07/06 03:08:05;;;;;;;7.13;4.05;;;;;;;24.41;45.51;99351.72;5152490;27;20499;-66
2021/07/06 03:10:36;;;;;;;7.22;4.13;;;;;;;24.48;45.39;99351.22;5152604;27;20082;-67
2021/07/06 03:13:02;;;;;;;5.80;4.35;;;;;;;24.71;45.11;99348.97;5117246;27;20045;-66
2021/07/06 03:15:29;;;;;;;7.00;4.28;;;;;;;24.87;44.70;99352.63;5137695;27;20538;-67
2021/07/06 03:17:55;;;;;;;8.02;4.15;;;;;;;25.18;44.29;99350.59;5156637;27;20047;-67
2021/07/06 03:20:23;;;;;;;8.27;4.20;;;;;;;25.25;43.62;99351.63;5156555;27;20031;-66
2021/07/06 03:22:49;;;;;;;6.65;3.95;;;;;;;25.40;43.28;99349.41;5137721;27;20151;-68
2021/07/06 03:25:17;;;;;;;6.88;4.30;;;;;;;25.46;42.67;99350.75;5156249;27;20118;-67
2021/07/06 03:27:44;;;;;;;5.60;4.43;;;;;;;25.54;42.63;99358.03;5156096;27;20038;-67
2021/07/06 03:30:13;;;;;;;6.70;4.40;;;;;;;25.81;42.63;99353.84;5156194;27;20034;-66
2021/07/06 03:32:39;;;;;;;6.57;4.22;;;;;;;25.78;42.37;99349.88;5156334;27;20042;-68
2021/07/06 03:35:06;;;;;;;8.48;4.25;;;;;;;25.61;41.52;99359.03;5137322;27;20046;-67
2021/07/06 03:37:32;;;;;;;6.68;4.30;;;;;;;25.50;41.79;99359.81;5156102;27;20050;-67
2021/07/06 03:39:57;;;;;;;7.45;4.10;;;;;;;25.43;42.48;99351.44;5155832;27;20050;-68
2021/07/06 03:42:23;;;;;;;5.70;4.22;;;;;;;25.44;42.42;99355.72;5137282;27;20058;-67
2021/07/06 03:44:49;;;;;;;6.63;4.00;;;;;;;25.44;42.24;99361.94;5155476;27;20046;-66
2021/07/06 03:47:15;;;;;;;5.72;4.50;;;;;;;25.52;42.53;99362.97;5156322;27;20137;-67
2021/07/06 03:49:41;;;;;;;6.20;4.50;;;;;;;25.51;41.90;99370.34;5155417;27;20043;-67
2021/07/06 03:52:06;;;;;;;8.60;4.55;;;;;;;25.45;42.17;99358.13;5155892;27;20079;-66
2021/07/06 03:54:32;;;;;;;6.90;4.63;;;;;;;25.38;42.58;99355.16;5155657;27;20122;-67
2021/07/06 03:57:00;;;;;;;6.70;5.13;;;;;;;25.21;42.40;99358.88;5155501;27;20453;-67
2021/07/06 03:59:26;;;;;;;7.68;4.80;;;;;;;25.18;42.23;99364.97;5136926;27;20046;-67
2021/07/06 04:01:52;;;;;;;7.07;4.50;;;;;;;25.13;42.11;99371.38;5136979;27;20584;-67
2021/07/06 04:04:18;;;;;;;6.30;4.85;;;;;;;25.01;42.40;99371.31;5136720;27;20043;-67
2021/07/06 04:06:45;;;;;;;7.40;4.65;;;;;;;25.16;41.52;99367.22;5155492;27;20042;-67
2021/07/06 04:09:10;;;;;;;6.05;4.20;;;;;;;25.23;41.72;99369.38;5155268;27;20049;-66
2021/07/06 04:11:36;;;;;;;7.28;4.57;;;;;;;25.32;42.04;99370.06;5155384;27;20042;-67
2021/07/06 04:14:04;;;;;;;7.57;4.85;;;;;;;25.76;41.22;99373.06;5136391;27;20423;-67
2021/07/06 04:16:30;;;;;;;7.05;4.60;;;;;;;25.86;41.18;99372.66;5155231;27;20594;-64
2021/07/06 04:18:55;;;;;;;12.65;4.80;;;;;;;25.90;41.31;99381.69;5155317;27;20125;-64
2021/07/06 04:21:21;;;;;;;8.10;4.70;;;;;;;26.12;40.22;99374.19;5136261;27;20045;-65
2021/07/06 04:23:47;;;;;;;11.23;4.50;;;;;;;26.08;39.96;99370.59;5155010;27;20047;-67
2021/07/06 04:26:13;;;;;;;6.88;4.53;;;;;;;26.03;40.48;99375.13;5154395;27;20043;-66
2021/07/06 04:28:38;;;;;;;9.77;5.55;;;;;;;25.97;40.01;99376.50;5154985;27;20267;-67
2021/07/06 04:31:04;;;;;;;7.53;4.25;;;;;;;25.91;40.22;99374.34;5155260;27;20479;-68
2021/07/06 04:33:31;;;;;;;6.13;4.72;;;;;;;25.91;40.63;99385.97;5136187;27;20133;-68
2021/07/06 04:35:57;;;;;;;7.30;4.78;;;;;;;25.93;40.72;99380.22;5155240;27;20038;-67
2021/07/06 04:38:23;;;;;;;8.15;4.70;;;;;;;26.07;40.44;99388.81;5155098;27;20087;-67
2021/07/06 04:40:49;;;;;;;6.30;4.30;;;;;;;26.23;39.79;99386.97;5155148;27;20038;-67
2021/07/06 04:43:15;;;;;;;7.18;5.25;;;;;;;26.38;40.37;99381.97;5154517;27;20039;-68
2021/07/06 04:45:41;;;;;;;7.35;4.90;;;;;;;26.04;39.84;99382.16;5154499;27;20111;-67
2021/07/06 04:48:07;;;;;;;7.15;4.50;;;;;;;26.03;39.82;99380.56;5154388;27;20043;-68
2021/07/06 04:50:37;;;;;;;5.50;4.50;;;;;;;26.01;39.38;99385.53;5154551;27;20529;-70
2021/07/06 04:53:04;;;;;;;7.72;4.65;;;;;;;26.00;39.71;99381.25;5135598;27;20142;-68
2021/07/06 04:55:30;;;;;;;6.18;4.82;;;;;;;26.04;39.35;99384.06;5154490;27;20125;-66
2021/07/06 04:57:55;;;;;;;5.20;4.70;;;;;;;26.18;39.20;99386.44;5154338;27;20416;-67
2021/07/06 05:00:21;;;;;;;7.32;5.10;;;;;;;26.16;40.05;99386.00;5154436;27;20049;-67
2021/07/06 05:02:47;;;;;;;7.00;4.88;;;;;;;26.19;39.76;99393.44;5153998;27;20103;-69
2021/07/06 05:05:13;;;;;;;6.57;4.68;;;;;;;26.30;38.68;99397.28;5154088;27;20481;-69
2021/07/06 05:07:39;;;;;;;6.90;4.85;;;;;;;26.22;38.47;99388.13;5135769;27;20043;-67
2021/07/06 05:10:10;;;;;;;8.68;5.47;;;;;;;26.28;38.12;99394.13;5153880;27;20095;-67
2021/07/06 05:12:37;;;;;;;6.70;4.72;;;;;;;26.27;38.51;99395.25;5153894;27;20045;-65
2021/07/06 05:15:04;;;;;;;6.00;4.60;;;;;;;26.07;38.76;99394.25;5153617;27;20038;-66
2021/07/06 05:17:30;;;;;;;9.45;4.75;;;;;;;25.86;38.96;99393.59;5153646;27;20063;-67
2021/07/06 05:19:57;;;;;;;8.32;5.00;;;;;;;25.74;39.67;99395.13;5153941;27;20077;-67
2021/07/06 05:22:23;;;;;;;6.22;5.05;;;;;;;25.56;40.00;99401.88;5153839;27;20077;-68
2021/07/06 05:24:50;;;;;;;6.90;4.53;;;;;;;25.43;40.69;99403.00;5153752;27;20041;-67
2021/07/06 05:27:16;;;;;;;6.70;4.75;;;;;;;25.50;40.46;99406.75;5153832;27;20142;-68
2021/07/06 05:29:42;;;;;;;8.25;5.65;;;;;;;25.46;40.24;99402.31;5135053;27;20045;-66
2021/07/06 05:32:08;;;;;;;7.93;5.68;;;;;;;25.19;40.55;99401.81;5154015;27;20043;-69
2021/07/06 05:34:34;;;;;;;7.78;5.10;;;;;;;25.03;40.98;99404.34;5152443;27;20150;-68
2021/07/06 05:37:00;;;;;;;6.65;4.90;;;;;;;24.90;41.66;99398.03;5117904;27;20082;-70
2021/07/06 05:39:26;;;;;;;9.35;5.75;;;;;;;24.89;42.08;99398.41;5134966;27;20046;-69
2021/07/06 05:41:52;;;;;;;9.40;5.35;;;;;;;24.76;42.10;99399.44;5153471;27;20035;-69
2021/07/06 05:44:18;;;;;;;7.68;5.68;;;;;;;24.68;41.88;99399.19;5134850;27;20045;-69
2021/07/06 05:46:43;;;;;;;6.10;5.03;;;;;;;24.58;42.76;99407.72;5153169;27;20065;-69
2021/07/06 05:49:09;;;;;;;9.13;5.20;;;;;;;24.52;42.89;99405.53;5153152;27;20053;-68
2021/07/06 05:51:36;;;;;;;7.82;5.30;;;;;;;24.46;42.81;99403.00;5153263;27;20035;-70
2021/07/06 05:54:03;;;;;;;9.85;5.75;;;;;;;24.48;43.42;99406.19;5153296;27;20050;-69
2021/07/06 05:56:30;;;;;;;8.00;5.20;;;;;;;24.51;43.60;99410.16;5135146;27;20046;-70
2021/07/06 05:58:56;;;;;;;8.32;5.22;;;;;;;24.50;42.18;99413.97;5153125;27;20424;-69
2021/07/06 06:01:22;;;;;;;10.07;6.03;;;;;;;24.44;40.75;99405.28;5134719;27;20054;-69
2021/07/06 06:03:48;;;;;;;18.52;6.28;;;;;;;24.34;41.50;99407.53;5100368;27;20039;-68
2021/07/06 06:06:14;;;;;;;8.82;5.80;;;;;;;24.38;41.66;99405.75;5153516;27;20065;-68
2021/07/06 06:08:41;;;;;;;9.95;5.88;;;;;;;24.35;42.13;99409.13;5153018;27;20046;-69
2021/07/06 06:11:08;;;;;;;11.15;6.18;;;;;;;24.25;42.31;99413.78;5152775;27;20053;-69
2021/07/06 06:13:36;;;;;;;12.60;6.20;;;;;;;24.22;43.30;99419.09;5134937;27;20415;-70
2021/07/06 06:16:01;;;;;;;10.73;6.32;;;;;;;24.20;42.32;99413.97;5152630;27;20102;-69
2021/07/06 06:18:27;;;;;;;8.60;5.53;;;;;;;24.21;41.30;99409.38;5152940;27;20506;-70
2021/07/06 06:20:54;;;;;;;8.23;6.18;;;;;;;24.29;41.79;99413.13;5153144;27;20609;-69
2021/07/06 06:23:19;;;;;;;8.57;5.47;;;;;;;24.28;41.28;99419.69;5152995;27;20049;-69
2021/07/06 06:25:45;;;;;;;8.88;6.10;;;;;;;24.10;39.92;99413.56;5152674;27;20035;-69
2021/07/06 06:28:12;;;;;;;9.45;6.45;;;;;;;23.90;41.67;99418.59;5116688;27;20129;-70
2021/07/06 06:30:38;;;;;;;7.20;5.72;;;;;;;23.77;40.69;99397.97;5152347;27;20071;-69
2021/07/06 06:33:03;;;;;;;8.82;5.00;;;;;;;23.82;40.46;99410.50;5153034;27;20046;-69
2021/07/06 06:35:29;;;;;;;8.55;5.40;;;;;;;23.99;40.05;99415.84;5134241;27;20046;-67
2021/07/06 06:37:56;;;;;;;15.48;6.63;;;;;;;24.05;40.59;99409.13;5152629;27;20505;-69
2021/07/06 06:40:23;;;;;;;6.63;5.72;;;;;;;24.18;40.68;99412.75;5152397;27;20099;-70
2021/07/06 06:42:50;;;;;;;10.63;5.97;;;;;;;24.09;40.67;99428.22;5153071;27;20038;-71
2021/07/06 06:45:16;;;;;;;9.57;6.20;;;;;;;24.04;40.69;99412.97;5130676;28;20051;-68
2021/07/06 06:47:43;;;;;;;8.82;5.65;;;;;;;24.05;41.04;99414.53;5131903;27;20070;-69
2021/07/06 06:50:11;;;;;;;8.63;5.97;;;;;;;23.87;40.57;99415.75;5134286;27;20563;-69
2021/07/06 06:52:37;;;;;;;9.93;5.53;;;;;;;23.70;41.13;99417.41;5135822;27;20051;-68
2021/07/06 06:55:04;;;;;;;6.60;5.72;;;;;;;23.79;41.49;99428.97;5136025;27;20400;-68
2021/07/06 06:57:30;;;;;;;7.00;6.18;;;;;;;23.78;40.74;99413.06;5136139;27;20049;-68
2021/07/06 06:59:56;;;;;;;7.65;6.15;;;;;;;23.81;41.32;99417.84;5134520;27;20072;-68
2021/07/06 07:02:28;;;;;;;11.02;6.45;;;;;;;23.85;41.31;99416.06;5136090;27;20043;-69
2021/07/06 07:04:54;;;;;;;6.72;5.97;;;;;;;24.00;40.58;99412.00;5135882;27;20204;-67
2021/07/06 07:07:22;;;;;;;7.55;5.80;;;;;;;23.73;40.63;99413.25;5135596;27;20430;-68
2021/07/06 07:09:49;;;;;;;8.32;6.00;;;;;;;23.79;40.30;99396.50;5135556;27;20043;-69
2021/07/06 07:12:15;;;;;;;8.73;5.78;;;;;;;23.92;40.16;99397.41;5134366;27;20472;-69
2021/07/06 07:14:41;;;;;;;6.90;5.38;;;;;;;23.90;39.94;99406.97;5112683;27;20039;-68
2021/07/06 07:17:08;;;;;;;7.93;6.05;;;;;;;23.83;39.94;99410.19;5134300;27;20043;-69
2021/07/06 07:19:34;;;;;;;8.75;5.55;;;;;;;23.87;40.15;99415.75;5128495;27;20043;-64
2021/07/06 07:22:02;;;;;;;7.30;5.47;;;;;;;23.77;39.89;99417.69;5134051;27;20147;-67
2021/07/06 07:24:28;;;;;;;6.55;5.47;;;;;;;23.83;39.86;99417.53;5132752;27;20136;-67
2021/07/06 07:26:54;;;;;;;7.57;6.03;;;;;;;23.86;40.12;99412.25;5133389;27;20058;-67
2021/07/06 07:29:21;;;;;;;7.82;5.60;;;;;;;23.88;40.03;99407.28;5132750;27;20039;-67
2021/07/06 07:31:46;;;;;;;7.10;5.97;;;;;;;24.06;41.03;99404.50;5132203;27;20255;-69
2021/07/06 07:34:12;;;;;;;8.68;5.60;;;;;;;24.24;39.59;99414.13;5131194;27;20046;-67
2021/07/06 07:36:40;;;;;;;8.05;6.28;;;;;;;24.19;39.23;99412.41;5115790;27;20047;-67
2021/07/06 07:39:07;;;;;;;8.48;6.40;;;;;;;24.06;39.34;99420.75;5133630;27;20035;-69
2021/07/06 07:41:33;;;;;;;6.43;5.70;;;;;;;23.92;39.81;99407.47;5131373;27;20516;-69
2021/07/06 07:43:59;;;;;;;9.23;5.93;;;;;;;24.00;39.73;99403.88;5130063;27;20031;-69
2021/07/06 07:46:25;;;;;;;7.55;6.20;;;;;;;24.00;39.81;99404.72;5149845;27;20058;-68
2021/07/06 07:48:52;;;;;;;6.90;5.22;;;;;;;23.99;39.71;99413.13;5150677;27;20046;-69
2021/07/06 07:51:18;;;;;;;9.35;5.47;;;;;;;24.00;39.91;99409.31;5134109;27;20059;-69
2021/07/06 07:53:45;;;;;;;6.72;5.68;;;;;;;23.97;39.77;99397.25;5154545;27;20129;-69
2021/07/06 07:56:11;;;;;;;7.10;5.47;;;;;;;24.02;39.71;99415.19;5153576;27;20069;-70
2021/07/06 07:58:37;;;;;;;6.57;5.53;;;;;;;24.08;40.70;99396.84;5134601;27;20078;-69
2021/07/06 08:01:03;;;;;;;7.53;6.03;;;;;;;24.15;40.45;99395.22;5132164;27;20099;-69
2021/07/06 08:03:29;;;;;;;9.35;6.28;;;;;;;24.12;40.42;99397.78;5151822;27;20034;-68
2021/07/06 08:05:59;;;;;;;7.65;6.38;;;;;;;24.16;40.20;99387.91;5152147;27;20391;-69
2021/07/06 08:08:25;;;;;;;8.68;6.13;;;;;;;24.18;39.34;99401.91;5154353;27;20051;-68
2021/07/06 08:10:54;;;;;;;8.45;6.18;;;;;;;24.08;39.78;99402.28;5134439;27;20042;-67
2021/07/06 08:13:21;;;;;;;15.95;6.57;;;;;;;24.12;40.07;99397.78;5133176;27;20095;-69
2021/07/06 08:15:48;;;;;;;10.13;6.68;;;;;;;24.24;40.61;99392.47;5132844;27;20134;-68
2021/07/06 08:18:14;;;;;;;8.80;6.30;;;;;;;24.36;39.91;99399.88;5099112;27;20080;-68
2021/07/06 08:20:40;;;;;;;9.10;6.60;;;;;;;24.40;40.12;99398.09;5152489;27;20071;-68
2021/07/06 08:23:06;;;;;;;12.88;6.25;;;;;;;24.39;39.54;99394.59;5133391;27;20123;-68
2021/07/06 08:25:31;;;;;;;9.48;6.32;;;;;;;24.40;40.16;99392.69;5152159;27;20126;-68
2021/07/06 08:27:57;;;;;;;9.25;5.93;;;;;;;24.33;39.53;99397.84;5133631;27;20427;-69
2021/07/06 08:30:23;;;;;;;8.10;6.05;;;;;;;24.32;39.72;99399.72;5134664;27;20038;-69
2021/07/06 08:32:49;;;;;;;8.32;5.75;;;;;;;24.37;39.73;99402.25;5134499;27;20084;-69
2021/07/06 08:35:14;;;;;;;8.65;6.25;;;;;;;24.41;39.05;99399.66;5152932;27;20049;-67
2021/07/06 08:37:40;;;;;;;9.40;6.35;;;;;;;24.46;38.76;99394.09;5153127;27;20081;-68
2021/07/06 08:40:08;;;;;;;9.48;6.18;;;;;;;24.58;39.29;99393.38;5116671;27;20552;-68
2021/07/06 08:42:37;;;;;;;10.95;6.50;;;;;;;24.64;39.14;99394.75;5152903;27;20053;-67
2021/07/06 08:45:04;;;;;;;9.52;6.25;;;;;;;24.69;39.66;99394.56;5152121;27;20043;-67
2021/07/06 08:47:30;;;;;;;7.13;6.13;;;;;;;24.70;40.92;99396.94;5152254;27;20039;-67
2021/07/06 08:49:56;;;;;;;7.18;5.93;;;;;;;24.72;39.95;99391.19;5153403;27;20449;-67
2021/07/06 08:52:23;;;;;;;7.93;5.85;;;;;;;24.52;40.04;99395.47;5153793;27;20186;-69
2021/07/06 08:54:49;;;;;;;7.20;5.55;;;;;;;24.54;40.47;99400.59;5152341;27;20038;-68
2021/07/06 08:57:21;;;;;;;9.30;6.30;;;;;;;24.52;39.76;99395.47;5153376;27;20051;-69
2021/07/06 08:59:48;;;;;;;8.32;5.95;;;;;;;24.54;39.60;99384.34;5153025;27;20035;-68
2021/07/06 09:02:14;;;;;;;9.13;6.13;;;;;;;24.53;39.55;99388.16;5134196;27;20083;-68
2021/07/06 09:04:44;;;;;;;6.45;5.55;;;;;;;24.59;39.18;99381.41;5153148;27;20047;-66
2021/07/06 09:07:11;;;;;;;7.88;6.25;;;;;;;24.59;40.24;99382.22;5134169;27;20068;-68
2021/07/06 09:09:36;;;;;;;9.65;6.00;;;;;;;24.66;39.02;99379.75;5132216;27;20449;-68
2021/07/06 09:12:02;;;;;;;9.40;6.43;;;;;;;24.60;39.15;99381.09;5151989;27;20046;-69
2021/07/06 09:14:29;;;;;;;9.18;6.55;;;;;;;24.64;39.03;99379.28;5152689;27;20083;-68
2021/07/06 09:17:22;;;;;;;7.55;6.22;;;;;;;24.64;39.18;99379.28;5152489;27;20448;-67
2021/07/06 09:19:54;;;;;;;10.80;6.18;;;;;;;24.62;38.34;99386.16;5133430;27;20151;-67
2021/07/06 09:22:34;;;;;;;11.13;6.50;;;;;;;24.61;38.82;99379.94;5134278;27;20050;-68
2021/07/06 09:25:05;;;;;;;9.00;5.70;;;;;;;24.61;38.90;99379.16;5118251;27;20062;-65
2021/07/06 09:27:39;;;;;;;12.70;6.60;;;;;;;24.69;38.36;99365.53;5152417;27;20054;-67
2021/07/06 09:30:14;;;;;;;8.27;5.75;;;;;;;24.82;38.71;99362.88;5133798;27;20034;-68
2021/07/06 09:32:58;;;;;;;9.88;6.28;;;;;;;24.93;38.92;99359.41;5152054;27;20058;-66
2021/07/06 09:35:29;;;;;;;12.73;7.00;;;;;;;24.95;39.20;99342.84;5152389;27;20054;-69
2021/07/06 09:38:00;;;;;;;7.85;6.65;;;;;;;25.02;39.12;99364.75;5152208;27;20133;-68
2021/07/06 09:40:35;;;;;;;9.85;6.00;;;;;;;24.96;38.13;99376.16;5141812;27;20039;-68
2021/07/06 09:43:31;;;;;;;8.52;5.95;;;;;;;24.91;38.34;99360.88;5113833;27;20488;-69
2021/07/06 09:46:09;;;;;;;8.07;5.80;;;;;;;24.94;37.47;99352.06;5130318;27;20043;-70
2021/07/06 09:48:49;;;;;;;7.07;5.40;;;;;;;24.95;36.64;99358.31;5131615;27;20043;-70
2021/07/06 09:51:21;;;;;;;12.10;6.57;;;;;;;24.99;37.09;99356.50;5114496;27;20078;-70
2021/07/06 09:53:55;;;;;;;7.20;6.15;;;;;;;24.98;37.77;99363.84;5130947;27;20043;-68
2021/07/06 09:56:24;;;;;;;9.45;5.95;;;;;;;25.03;38.13;99350.09;5112943;27;20039;-70
2021/07/06 09:58:53;;;;;;;7.38;6.35;;;;;;;24.96;38.26;99362.59;5131086;27;20039;-68
2021/07/06 10:01:20;;;;;;;7.68;6.40;;;;;;;24.92;37.48;99351.63;5130746;27;20508;-69
2021/07/06 10:03:48;;;;;;;7.80;6.10;;;;;;;24.90;38.11;99370.94;5096449;27;20050;-70
2021/07/06 10:06:14;;;;;;;9.05;5.95;;;;;;;24.97;37.92;99350.63;5096191;27;20049;-70
2021/07/06 10:08:41;;;;;;;8.73;6.30;;;;;;;25.03;37.97;99355.53;5112322;27;20043;-70
2021/07/06 10:11:08;;;;;;;10.25;6.05;;;;;;;25.08;37.77;99365.34;5112577;28;20043;-70
2021/07/06 10:13:37;;;;;;;7.15;5.72;;;;;;;25.10;36.87;99354.97;5112713;27;20124;-70
2021/07/06 10:16:04;;;;;;;8.50;6.10;;;;;;;25.00;36.16;99349.94;5078368;27;20465;-68
2021/07/06 10:18:33;;;;;;;7.30;6.15;;;;;;;25.02;36.95;99351.19;5113013;27;20062;-68
2021/07/06 10:21:03;;;;;;;8.68;5.90;;;;;;;25.08;37.66;99357.22;5131271;27;20035;-70
2021/07/06 10:23:29;;;;;;;10.07;6.38;;;;;;;25.16;38.00;99345.50;5115712;27;20069;-70
2021/07/06 10:25:57;;;;;;;10.05;6.50;;;;;;;25.18;38.29;99351.41;5132637;27;20043;-68
2021/07/06 10:28:26;;;;;;;6.97;6.28;;;;;;;25.25;37.81;99340.00;5133683;27;20054;-70
2021/07/06 10:30:51;;;;;;;8.95;6.45;;;;;;;25.27;37.88;99340.47;5151503;27;20039;-69
2021/07/06 10:33:34;;;;;;;10.18;6.45;;;;;;;25.31;36.88;99349.50;5152024;27;20038;-69
2021/07/06 10:36:03;;;;;;;8.18;5.97;;;;;;;25.28;36.64;99339.31;5133148;27;20141;-70
2021/07/06 10:38:30;;;;;;;7.78;5.50;;;;;;;25.32;36.32;99346.44;5132318;27;20047;-69
2021/07/06 10:41:03;;;;;;;11.18;6.25;;;;;;;25.31;36.89;99346.78;5150463;27;20049;-69
2021/07/06 10:43:31;;;;;;;7.53;5.82;;;;;;;25.30;36.66;99346.00;5151187;27;20047;-71
2021/07/06 10:46:31;;;;;;;10.07;6.30;;;;;;;25.31;36.44;99323.16;5150069;27;20038;-68
2021/07/06 10:48:58;;;;;;;;;;;;;;;25.30;36.85;99332.44;5151689;27;20618;-69
2021/07/06 10:51:36;;;;;;;7.13;6.05;;;;;;;25.27;36.86;99330.41;5151500;27;19923;-69
2021/07/06 10:54:12;;;;;;;6.35;5.15;;;;;;;25.33;37.09;99328.25;5132370;27;20035;-70
2021/07/06 10:56:44;;;;;;;8.68;5.95;;;;;;;25.38;37.44;99328.84;5132526;27;20051;-69
2021/07/06 10:59:20;;;;;;;12.38;6.13;;;;;;;25.36;37.14;99331.09;5132985;27;20050;-68
2021/07/06 11:01:46;;;;;;;8.95;6.05;;;;;;;25.35;37.38;99331.41;5115622;27;20534;-70
2021/07/06 11:04:33;;;;;;;6.72;5.72;;;;;;;25.34;35.07;99329.84;5151093;27;20069;-69
2021/07/06 11:06:59;;;;;;;6.68;5.32;;;;;;;25.32;35.08;99332.09;5132950;27;20513;-69
2021/07/06 11:09:36;;;;;;;8.27;5.72;;;;;;;25.35;35.36;99336.84;5148543;27;20054;-69
2021/07/06 11:12:24;;;;;;;6.65;5.57;;;;;;;25.37;35.41;99331.88;5149574;27;20047;-70
2021/07/06 11:15:13;;;;;;;7.63;5.28;;;;;;;25.44;35.16;99328.59;5149877;27;20083;-69
2021/07/06 11:17:40;;;;;;;10.90;5.53;;;;;;;25.53;34.70;99326.56;5136851;27;20046;-70
2021/07/06 11:20:08;;;;;;;6.75;5.82;;;;;;;25.54;34.92;99325.44;5150864;27;20453;-68
2021/07/06 11:22:41;;;;;;;5.82;4.88;;;;;;;25.50;34.95;99322.63;5148934;27;20039;-70
2021/07/06 11:25:36;;;;;;;9.75;5.90;;;;;;;25.57;35.67;99320.13;5150792;27;20046;-71
2021/07/06 11:28:04;;;;;;;9.00;5.78;;;;;;;25.58;34.68;99326.34;5149848;27;20500;-69
2021/07/06 11:30:35;;;;;;;8.43;6.03;;;;;;;25.57;35.59;99313.91;5149817;27;20077;-70
2021/07/06 11:33:07;;;;;;;6.82;5.97;;;;;;;25.62;35.30;99313.69;5132027;27;20491;-69
2021/07/06 11:35:36;;;;;;;10.90;6.10;;;;;;;25.59;35.32;99312.44;5152431;27;20091;-69